Time;durP1;ratioP1;P1;durP2;ratioP2;P2;SDS_P1;SDS_P2;PMS_P1;PMS_P2;Temp;Humidity;BMP_temperature;BMP_pressure;BME280_temperature;BME280_humidity;BME280_pressure;Samples;Min_cycle;Max_cycle;Signal;HPM_P1;HPM_P2
2024/04/04 00:02:06;;;;;;;0.80;0.80;;;;;;;6.33;67.79;97369.94;5112319;28;20048;-64
2024/04/04 00:04:32;;;;;;;1.08;0.95;;;;;;;6.35;67.31;97362.59;5113447;28;20051;-63
2024/04/04 00:06:58;;;;;;;0.82;0.82;;;;;;;6.33;67.70;97374.41;5094926;28;20047;-63
2024/04/04 00:09:24;;;;;;;0.80;0.80;;;;;;;6.41;67.30;97370.47;5095102;28;20046;-64
2024/04/04 00:11:51;;;;;;;0.80;0.80;;;;;;;6.37;67.90;97362.31;5095042;28;20040;-64
2024/04/04 00:14:19;;;;;;;1.00;1.00;;;;;;;6.39;67.51;97359.44;5095481;28;20546;-64
2024/04/04 00:16:45;;;;;;;1.00;1.00;;;;;;;6.40;67.48;97374.94;5095156;28;20408;-63
2024/04/04 00:19:11;;;;;;;1.35;0.80;;;;;;;6.37;67.72;97372.84;5112860;28;20090;-63
2024/04/04 00:21:37;;;;;;;0.90;0.90;;;;;;;6.32;67.72;97372.81;5112911;28;20036;-64
2024/04/04 00:24:03;;;;;;;0.80;0.80;;;;;;;6.23;68.12;97383.03;5094578;28;20047;-64
2024/04/04 00:26:28;;;;;;;0.80;0.80;;;;;;;6.19;68.29;97378.56;5113283;28;20551;-64
2024/04/04 00:28:54;;;;;;;0.70;0.70;;;;;;;6.19;68.26;97389.88;5094445;28;20048;-63
2024/04/04 00:31:20;;;;;;;0.80;0.80;;;;;;;6.10;69.34;97381.69;5113021;28;20036;-64
2024/04/04 00:33:46;;;;;;;0.90;0.90;;;;;;;6.07;69.36;97384.84;5112932;28;20043;-64
2024/04/04 00:36:13;;;;;;;0.90;0.90;;;;;;;6.15;68.98;97394.09;5112981;28;20040;-64
2024/04/04 00:38:39;;;;;;;1.23;1.13;;;;;;;6.21;68.98;97400.94;5112778;28;20090;-63
2024/04/04 00:41:05;;;;;;;0.90;0.90;;;;;;;6.26;68.67;97398.31;5094495;28;20504;-64
2024/04/04 00:43:31;;;;;;;0.90;0.90;;;;;;;6.25;68.60;97398.59;5128548;27;20051;-64
2024/04/04 00:45:57;;;;;;;0.88;0.88;;;;;;;6.21;68.50;97405.44;5112636;28;20032;-64
2024/04/04 00:48:24;;;;;;;0.98;0.90;;;;;;;6.31;68.38;97408.09;5094219;28;20501;-63
2024/04/04 00:50:52;;;;;;;1.15;0.90;;;;;;;6.36;67.45;97413.38;5112555;28;20473;-64
2024/04/04 00:53:20;;;;;;;1.10;1.00;;;;;;;6.30;67.67;97412.56;5094437;28;20040;-64
2024/04/04 00:55:48;;;;;;;1.30;1.20;;;;;;;6.33;67.74;97406.00;5094062;28;20043;-64
2024/04/04 00:58:18;;;;;;;0.77;0.77;;;;;;;6.32;67.56;97414.91;5112139;28;20039;-63
2024/04/04 01:00:44;;;;;;;0.90;0.90;;;;;;;6.33;67.58;97412.03;5112526;28;20059;-63
2024/04/04 01:03:11;;;;;;;0.90;0.90;;;;;;;6.30;66.86;97415.19;5093867;28;20098;-65
2024/04/04 01:05:37;;;;;;;0.90;0.90;;;;;;;6.30;67.41;97417.81;5094106;28;20504;-65
2024/04/04 01:08:04;;;;;;;1.10;1.10;;;;;;;6.27;67.48;97413.06;5093783;28;20044;-64
2024/04/04 01:10:30;;;;;;;0.90;0.90;;;;;;;6.26;67.56;97427.25;5112046;28;20410;-64
2024/04/04 01:12:56;;;;;;;0.80;0.80;;;;;;;6.23;66.58;97416.47;5077217;28;20104;-65
2024/04/04 01:15:22;;;;;;;0.93;0.93;;;;;;;6.26;66.76;97424.63;5093764;28;20496;-64
2024/04/04 01:17:47;;;;;;;0.90;0.90;;;;;;;6.25;66.71;97438.06;5093657;28;20079;-63
2024/04/04 01:20:13;;;;;;;1.10;1.10;;;;;;;6.28;67.10;97442.81;5111819;28;20481;-62
2024/04/04 01:22:39;;;;;;;0.80;0.80;;;;;;;6.31;66.63;97443.06;5112095;28;20047;-64
2024/04/04 01:25:07;;;;;;;1.20;1.10;;;;;;;6.21;65.87;97434.38;5093516;28;20126;-64
2024/04/04 01:27:33;;;;;;;1.80;0.90;;;;;;;6.22;66.69;97435.94;5093736;28;20548;-64
2024/04/04 01:29:59;;;;;;;0.90;0.90;;;;;;;6.13;66.43;97439.06;5076753;28;20051;-64
2024/04/04 01:32:25;;;;;;;1.33;1.20;;;;;;;6.14;66.33;97445.09;5112056;28;20047;-64
2024/04/04 01:34:51;;;;;;;1.20;1.10;;;;;;;6.09;65.95;97443.25;5111809;28;20496;-63
2024/04/04 01:37:16;;;;;;;0.90;0.90;;;;;;;6.08;65.95;97448.75;5112029;28;20091;-66
2024/04/04 01:39:42;;;;;;;0.82;0.82;;;;;;;6.07;65.29;97452.44;5093453;28;20050;-62
2024/04/04 01:42:08;;;;;;;0.98;0.95;;;;;;;6.10;65.66;97457.97;5111973;28;20043;-66
2024/04/04 01:44:36;;;;;;;1.02;1.00;;;;;;;6.05;65.52;97460.56;5093767;28;20065;-64
2024/04/04 01:47:02;;;;;;;1.40;1.20;;;;;;;6.04;65.29;97460.84;5076762;28;20036;-64
2024/04/04 01:49:28;;;;;;;0.80;0.80;;;;;;;6.04;65.60;97472.16;5072540;28;20056;-64
2024/04/04 01:51:54;;;;;;;1.38;1.00;;;;;;;6.07;65.48;97476.91;5070084;28;20653;-63
2024/04/04 01:54:20;;;;;;;0.88;0.88;;;;;;;6.09;65.53;97485.34;5071282;28;20455;-63
2024/04/04 01:56:45;;;;;;;0.88;0.88;;;;;;;6.06;65.30;97477.97;5070074;28;20049;-63
2024/04/04 01:59:13;;;;;;;1.05;1.05;;;;;;;6.00;64.82;97480.78;5020560;28;20421;-63
2024/04/04 02:01:39;;;;;;;1.10;1.00;;;;;;;5.95;65.04;97488.66;5071217;28;20138;-64
2024/04/04 02:04:05;;;;;;;1.27;0.90;;;;;;;5.96;64.81;97485.00;5070770;28;20059;-64
2024/04/04 02:06:31;;;;;;;1.00;1.00;;;;;;;5.96;64.81;97495.50;5072509;28;20044;-64
2024/04/04 02:08:56;;;;;;;1.00;0.90;;;;;;;5.91;64.95;97497.03;5074947;28;20048;-63
2024/04/04 02:11:22;;;;;;;1.02;0.93;;;;;;;5.86;65.46;97499.63;5056912;28;20394;-65
2024/04/04 02:13:48;;;;;;;1.00;1.00;;;;;;;5.82;65.32;97505.63;5073373;28;20043;-64
2024/04/04 02:16:14;;;;;;;1.15;1.02;;;;;;;5.81;66.03;97507.47;5075043;28;20044;-64
2024/04/04 02:18:40;;;;;;;1.00;1.00;;;;;;;5.80;65.71;97507.75;5073600;28;20079;-63
2024/04/04 02:21:06;;;;;;;1.10;1.10;;;;;;;5.83;65.47;97517.75;5074892;28;20068;-64
2024/04/04 02:23:31;;;;;;;1.08;1.08;;;;;;;5.84;65.38;97514.84;5074476;28;20050;-64
2024/04/04 02:25:58;;;;;;;1.17;1.08;;;;;;;5.80;65.18;97523.50;5074773;28;20401;-62
2024/04/04 02:28:24;;;;;;;1.30;1.20;;;;;;;5.68;64.78;97524.47;5073423;28;20045;-64
2024/04/04 02:30:51;;;;;;;0.93;0.93;;;;;;;5.70;65.33;97534.72;5074581;28;20044;-64
2024/04/04 02:33:17;;;;;;;1.05;1.00;;;;;;;5.65;65.51;97534.69;5074508;28;20056;-64
2024/04/04 02:35:53;;;;;;;1.02;1.00;;;;;;;5.64;65.46;97541.78;5073224;28;20417;-65
2024/04/04 02:38:21;;;;;;;0.93;0.90;;;;;;;5.71;65.43;97554.72;5073244;28;20101;-64
2024/04/04 02:40:47;;;;;;;1.38;1.00;;;;;;;5.74;65.44;97553.44;5074440;28;20037;-63
2024/04/04 02:43:13;;;;;;;1.40;1.30;;;;;;;5.65;66.36;97561.00;5072893;28;20059;-66
2024/04/04 02:45:38;;;;;;;1.35;1.25;;;;;;;5.64;65.80;97567.28;5074474;28;20040;-63
2024/04/04 02:48:04;;;;;;;1.20;1.10;;;;;;;5.60;66.21;97568.81;5072566;28;20056;-64
2024/04/04 02:50:30;;;;;;;1.38;1.27;;;;;;;5.67;65.60;97567.56;5074169;28;20071;-63
2024/04/04 02:52:56;;;;;;;1.38;1.27;;;;;;;5.72;66.08;97568.66;5072716;28;20095;-64
2024/04/04 02:55:21;;;;;;;1.48;1.23;;;;;;;5.76;65.80;97575.78;5074064;28;20044;-63
2024/04/04 02:57:47;;;;;;;1.00;1.00;;;;;;;5.74;65.18;97579.72;5072973;28;20054;-65
2024/04/04 03:00:13;;;;;;;1.30;1.20;;;;;;;5.74;65.54;97582.38;5073841;28;20037;-64
2024/04/04 03:02:39;;;;;;;1.30;1.20;;;;;;;5.74;64.75;97579.72;5074120;28;20398;-65
2024/04/04 03:05:05;;;;;;;1.30;1.20;;;;;;;5.70;64.95;97577.56;5073813;28;20114;-62
2024/04/04 03:07:31;;;;;;;0.93;0.93;;;;;;;5.72;63.99;97590.47;5073961;28;20051;-65
2024/04/04 03:09:57;;;;;;;0.90;0.90;;;;;;;5.61;64.21;97586.97;5072291;28;20044;-65
2024/04/04 03:12:23;;;;;;;0.90;0.90;;;;;;;5.59;64.13;97591.69;5072717;28;20047;-65
2024/04/04 03:14:49;;;;;;;0.80;0.80;;;;;;;5.52;63.96;97603.44;5073723;28;20493;-63
2024/04/04 03:17:14;;;;;;;0.90;0.90;;;;;;;5.61;64.11;97600.09;5072184;28;20389;-65
2024/04/04 03:19:40;;;;;;;2.50;0.90;;;;;;;5.64;64.46;97609.34;5073305;28;20050;-64
2024/04/04 03:22:06;;;;;;;1.25;1.15;;;;;;;5.62;65.63;97606.97;5073686;28;20068;-66
2024/04/04 03:24:33;;;;;;;1.30;1.20;;;;;;;5.58;66.28;97618.22;5073694;28;20040;-64
2024/04/04 03:26:58;;;;;;;1.10;1.00;;;;;;;5.56;66.38;97610.59;5072358;28;20048;-63
2024/04/04 03:29:25;;;;;;;1.05;1.05;;;;;;;5.53;66.77;97620.78;5072134;28;20497;-64
2024/04/04 03:31:51;;;;;;;1.10;1.00;;;;;;;5.49;67.67;97617.06;5073589;28;20508;-63
2024/04/04 03:34:16;;;;;;;0.95;0.95;;;;;;;5.46;66.94;97616.50;5073453;28;20040;-65
2024/04/04 03:36:42;;;;;;;0.90;0.90;;;;;;;5.36;67.74;97600.66;5072031;28;20521;-63
2024/04/04 03:39:08;;;;;;;1.20;1.10;;;;;;;5.57;67.91;97630.56;5072862;28;20040;-64
2024/04/04 03:41:34;;;;;;;1.00;1.00;;;;;;;5.67;67.68;97633.28;5071970;28;20044;-63
2024/04/04 03:44:00;;;;;;;1.17;1.08;;;;;;;5.72;67.23;97645.69;5072848;28;20048;-64
2024/04/04 03:46:26;;;;;;;1.25;1.15;;;;;;;5.88;67.29;97639.53;5055388;28;20044;-64
2024/04/04 03:48:52;;;;;;;1.55;1.13;;;;;;;5.97;67.35;97637.28;5097231;28;20074;-64
2024/04/04 03:51:18;;;;;;;1.17;1.05;;;;;;;6.07;67.49;97650.50;5113762;28;20039;-63
2024/04/04 03:53:44;;;;;;;2.50;1.23;;;;;;;6.09;66.86;97656.31;5095454;28;20046;-64
2024/04/04 03:56:10;;;;;;;1.30;1.10;;;;;;;6.11;67.24;97648.94;5095336;28;20408;-63
2024/04/04 03:58:36;;;;;;;1.20;1.10;;;;;;;6.22;66.91;97654.31;5078477;28;20531;-63
2024/04/04 04:01:02;;;;;;;1.20;1.10;;;;;;;6.23;66.30;97659.31;5113365;28;20040;-64
2024/04/04 04:03:29;;;;;;;1.42;1.20;;;;;;;6.17;66.35;97659.53;5061718;28;20054;-63
2024/04/04 04:06:01;;;;;;;1.10;1.00;;;;;;;6.11;66.74;97656.84;5113417;28;20059;-63
2024/04/04 04:08:27;;;;;;;2.40;1.08;;;;;;;6.09;66.14;97653.69;5113370;28;20035;-64
2024/04/04 04:10:53;;;;;;;1.40;1.30;;;;;;;6.07;65.67;97661.03;5113206;28;20043;-64
2024/04/04 04:13:20;;;;;;;2.45;1.10;;;;;;;6.10;64.55;97665.00;5113104;28;20097;-64
2024/04/04 04:15:58;;;;;;;1.08;1.00;;;;;;;6.10;63.58;97665.00;5112875;28;20044;-64
2024/04/04 04:18:24;;;;;;;0.90;0.90;;;;;;;6.13;64.24;97654.75;5094808;28;20036;-65
2024/04/04 04:23:37;;;;;;;2.42;1.48;;;;;;;6.48;64.46;97679.78;5112782;28;20055;-64
2024/04/04 04:26:03;;;;;;;1.40;1.30;;;;;;;6.62;64.10;97687.22;5113154;28;20373;-63
2024/04/04 04:28:29;;;;;;;1.02;1.02;;;;;;;6.72;65.04;97689.94;5094010;28;20104;-64
2024/04/04 04:30:54;;;;;;;1.35;1.25;;;;;;;6.68;65.42;97689.66;5094345;28;20500;-65
2024/04/04 04:33:20;;;;;;;0.80;0.80;;;;;;;6.82;64.60;97687.34;5094338;28;20070;-64
2024/04/04 04:35:46;;;;;;;0.82;0.82;;;;;;;6.97;64.42;97699.81;5094103;28;20043;-63
2024/04/04 04:38:15;;;;;;;1.00;0.95;;;;;;;7.01;64.81;97696.44;5110785;28;20074;-64
2024/04/04 04:40:42;;;;;;;1.20;0.93;;;;;;;6.87;65.62;97700.56;5112187;28;20071;-65
2024/04/04 04:43:08;;;;;;;1.17;1.08;;;;;;;6.67;66.17;97698.59;5093923;28;20043;-64
2024/04/04 04:45:34;;;;;;;1.20;1.10;;;;;;;6.51;66.30;97696.91;5111590;28;20535;-63
2024/04/04 04:48:01;;;;;;;0.98;0.93;;;;;;;6.40;66.98;97705.75;5112186;28;20079;-61
2024/04/04 04:50:27;;;;;;;0.80;0.80;;;;;;;6.37;66.84;97704.44;5112043;27;20470;-62
2024/04/04 04:52:52;;;;;;;0.98;0.98;;;;;;;6.41;66.36;97710.75;5093678;28;20092;-63
2024/04/04 04:55:18;;;;;;;1.05;1.00;;;;;;;6.60;65.24;97716.44;5094261;28;20122;-62
2024/04/04 04:57:46;;;;;;;1.25;0.93;;;;;;;6.79;65.07;97715.03;5112463;28;20050;-63
2024/04/04 05:00:12;;;;;;;0.95;0.95;;;;;;;7.01;63.77;97717.50;5112102;28;20537;-62
2024/04/04 05:02:38;;;;;;;1.25;1.02;;;;;;;7.13;63.52;97727.06;5112350;28;20039;-63
2024/04/04 05:05:15;;;;;;;1.23;0.90;;;;;;;7.21;62.59;97731.84;5111947;28;20047;-64
2024/04/04 05:07:42;;;;;;;1.10;0.90;;;;;;;7.21;61.87;97730.00;5112294;28;20039;-62
2024/04/04 05:10:11;;;;;;;2.10;0.88;;;;;;;7.40;61.18;97727.72;5093772;28;20097;-63
2024/04/04 05:12:37;;;;;;;0.90;0.90;;;;;;;7.42;61.32;97719.56;5112200;28;20043;-63
2024/04/04 05:15:03;;;;;;;1.45;0.93;;;;;;;7.41;60.86;97737.22;5093806;28;20065;-64
2024/04/04 05:17:30;;;;;;;0.90;0.90;;;;;;;7.35;61.40;97726.91;5112090;28;20081;-64
2024/04/04 05:19:56;;;;;;;1.35;0.80;;;;;;;7.27;61.78;97739.53;5111549;28;20070;-64
2024/04/04 05:22:22;;;;;;;0.80;0.80;;;;;;;7.19;61.76;97737.38;5111620;28;20561;-66
2024/04/04 05:24:48;;;;;;;1.20;0.80;;;;;;;7.11;61.86;97747.59;5111466;28;20512;-64
2024/04/04 05:27:14;;;;;;;1.17;0.90;;;;;;;7.02;62.88;97757.81;5112478;28;20536;-64
2024/04/04 05:29:41;;;;;;;0.98;0.90;;;;;;;7.05;62.84;97752.81;5111505;28;20043;-63
2024/04/04 05:32:07;;;;;;;1.02;0.90;;;;;;;7.05;62.54;97763.38;5111468;28;20039;-64
2024/04/04 05:34:33;;;;;;;1.50;0.80;;;;;;;7.00;63.08;97763.34;5111949;28;20184;-63
2024/04/04 05:36:59;;;;;;;1.15;1.00;;;;;;;7.03;62.95;97773.38;5111653;28;20126;-64
2024/04/04 05:39:25;;;;;;;2.45;1.00;;;;;;;7.02;63.11;97776.25;5076449;28;20132;-66
2024/04/04 05:41:52;;;;;;;0.80;0.80;;;;;;;6.99;63.27;97782.81;5114208;28;20085;-64
2024/04/04 05:44:18;;;;;;;0.90;0.90;;;;;;;6.99;62.92;97790.72;5116026;28;20048;-61
2024/04/04 05:46:44;;;;;;;1.23;0.93;;;;;;;6.99;63.01;97801.25;5115747;28;20035;-63
2024/04/04 05:49:10;;;;;;;0.95;0.95;;;;;;;7.18;63.02;97795.63;5115557;28;20291;-63
2024/04/04 05:51:35;;;;;;;1.20;1.05;;;;;;;7.21;62.50;97808.28;5115791;28;20040;-65
2024/04/04 05:54:01;;;;;;;0.98;0.90;;;;;;;7.46;62.31;97811.06;5115841;28;20044;-65
2024/04/04 05:56:27;;;;;;;0.90;0.90;;;;;;;7.81;61.66;97807.00;5116062;28;20481;-64
2024/04/04 05:58:52;;;;;;;1.02;1.00;;;;;;;7.80;63.32;97825.75;5115272;28;20039;-63
2024/04/04 06:01:18;;;;;;;0.90;0.90;;;;;;;7.66;64.33;97822.75;5093339;28;20043;-64
2024/04/04 06:03:44;;;;;;;1.17;1.08;;;;;;;7.46;66.54;97837.41;5114234;28;20386;-63
2024/04/04 06:06:11;;;;;;;1.00;1.00;;;;;;;7.27;68.10;97834.41;5095364;28;20465;-62
2024/04/04 06:08:38;;;;;;;1.00;1.00;;;;;;;7.20;67.91;97838.31;5078855;28;20096;-62
2024/04/04 06:11:04;;;;;;;1.00;1.00;;;;;;;7.24;68.18;97845.47;5114655;28;20043;-62
2024/04/04 06:13:30;;;;;;;2.08;1.13;;;;;;;7.17;67.65;97839.59;5114988;28;20047;-64
2024/04/04 06:16:01;;;;;;;1.23;1.10;;;;;;;7.23;67.79;97854.41;5114883;28;20473;-65
2024/04/04 06:18:28;;;;;;;1.20;1.10;;;;;;;7.27;67.75;97857.34;5096320;28;20143;-65
2024/04/04 06:20:54;;;;;;;1.30;1.20;;;;;;;7.15;65.70;97872.53;5108880;27;20043;-63
2024/04/04 06:23:20;;;;;;;1.55;1.10;;;;;;;7.33;65.38;97871.34;5111663;28;20050;-63
2024/04/04 06:25:46;;;;;;;1.08;1.05;;;;;;;7.43;63.05;97879.31;5095870;28;20408;-63
2024/04/04 06:28:11;;;;;;;1.00;1.00;;;;;;;7.53;61.94;97881.22;5114437;28;20073;-64
2024/04/04 06:30:37;;;;;;;1.98;1.35;;;;;;;7.59;61.09;97880.19;5096223;28;20040;-63
2024/04/04 06:33:03;;;;;;;1.30;1.20;;;;;;;7.78;60.30;97894.56;5114436;28;20046;-62
2024/04/04 06:35:29;;;;;;;0.90;0.90;;;;;;;7.97;59.35;97898.38;5114715;28;20197;-62
2024/04/04 06:37:55;;;;;;;0.90;0.90;;;;;;;8.12;58.80;97905.56;5114715;28;20040;-63
2024/04/04 06:40:21;;;;;;;0.80;0.80;;;;;;;8.21;57.50;97916.44;5096249;28;20068;-62
2024/04/04 06:42:47;;;;;;;1.00;1.00;;;;;;;8.35;57.09;97920.19;5095951;28;20082;-63
2024/04/04 06:45:13;;;;;;;0.90;0.90;;;;;;;8.45;56.80;97916.03;5078817;28;20042;-63
2024/04/04 06:47:53;;;;;;;2.70;1.85;;;;;;;8.55;57.16;97927.38;5095781;28;20043;-62
2024/04/04 06:50:19;;;;;;;1.20;1.02;;;;;;;8.59;56.71;97927.69;5095978;28;20130;-62
2024/04/04 06:52:44;;;;;;;0.90;0.90;;;;;;;8.68;55.89;97927.94;5113668;28;20126;-63
2024/04/04 06:55:10;;;;;;;0.80;0.80;;;;;;;8.65;55.77;97929.28;5096081;28;20047;-63
2024/04/04 06:57:36;;;;;;;1.10;0.95;;;;;;;8.55;55.44;97935.31;5114113;28;20031;-63
2024/04/04 07:00:01;;;;;;;2.00;0.90;;;;;;;8.54;55.83;97935.59;5107926;28;20036;-64
2024/04/04 07:02:30;;;;;;;1.10;1.00;;;;;;;8.59;55.07;97938.25;5082255;28;20048;-63
2024/04/04 07:04:56;;;;;;;1.20;1.10;;;;;;;8.47;55.74;97938.47;5093920;28;20043;-63
2024/04/04 07:07:21;;;;;;;0.98;0.98;;;;;;;8.32;55.95;97943.66;5110615;28;20055;-64
2024/04/04 07:09:47;;;;;;;1.20;1.10;;;;;;;8.30;56.56;97943.91;5114104;28;20496;-62
2024/04/04 07:12:13;;;;;;;1.25;1.00;;;;;;;8.18;56.20;97935.41;5113608;28;20059;-65
2024/04/04 07:14:39;;;;;;;1.80;1.00;;;;;;;8.01;56.71;97940.88;5129865;27;20038;-63
2024/04/04 07:17:05;;;;;;;1.48;1.10;;;;;;;8.04;57.32;97963.31;5113616;28;20067;-64
2024/04/04 07:19:30;;;;;;;1.10;1.00;;;;;;;8.08;57.21;97973.09;5062020;28;20063;-62
2024/04/04 07:21:56;;;;;;;1.20;1.20;;;;;;;8.15;57.64;97968.41;5113761;28;20499;-61
2024/04/04 07:24:22;;;;;;;1.98;1.15;;;;;;;8.11;56.72;97972.56;5114022;28;20042;-62
2024/04/04 07:26:48;;;;;;;1.02;0.90;;;;;;;8.04;56.90;97977.31;5095204;28;20043;-62
2024/04/04 07:29:14;;;;;;;1.20;1.10;;;;;;;7.97;57.09;97982.00;5095666;28;20048;-62
2024/04/04 07:31:40;;;;;;;1.00;1.00;;;;;;;8.01;56.59;97995.50;5095057;28;20408;-62
2024/04/04 07:34:06;;;;;;;0.95;0.95;;;;;;;7.98;56.71;97988.88;5108955;28;20044;-62
2024/04/04 07:36:32;;;;;;;1.10;1.00;;;;;;;7.89;57.14;97998.31;5112373;28;20050;-61
2024/04/04 07:38:57;;;;;;;1.55;1.40;;;;;;;7.95;57.47;97997.31;5094727;28;20075;-64
2024/04/04 07:41:23;;;;;;;1.33;1.23;;;;;;;8.04;57.05;97998.41;5078078;28;20042;-64
2024/04/04 07:43:49;;;;;;;1.52;1.30;;;;;;;8.03;56.63;97998.66;5075745;28;20424;-62
2024/04/04 07:46:15;;;;;;;2.42;1.70;;;;;;;8.04;58.56;98006.34;5095251;28;20381;-63
2024/04/04 07:48:43;;;;;;;1.85;1.38;;;;;;;8.03;57.75;98006.56;5112456;28;20052;-63
2024/04/04 07:51:09;;;;;;;1.50;1.25;;;;;;;8.06;57.82;98008.69;5111415;28;20039;-62
2024/04/04 07:53:35;;;;;;;1.20;1.00;;;;;;;8.20;56.74;98009.84;5112801;28;20039;-63
2024/04/04 07:56:00;;;;;;;1.75;1.20;;;;;;;8.16;56.84;98016.69;5112935;28;20042;-63
2024/04/04 07:58:26;;;;;;;2.40;1.08;;;;;;;8.24;57.10;98008.31;5113215;28;20074;-62
2024/04/04 08:00:56;;;;;;;1.33;1.20;;;;;;;8.38;57.03;98017.38;5094410;28;20035;-62
2024/04/04 08:03:22;;;;;;;1.40;1.20;;;;;;;8.41;57.12;98021.34;5076467;28;20559;-62
2024/04/04 08:05:54;;;;;;;2.05;1.30;;;;;;;8.41;56.89;98029.25;5112759;28;20040;-62
2024/04/04 08:08:20;;;;;;;2.33;1.20;;;;;;;8.54;57.05;98033.31;5112788;28;20050;-62
2024/04/04 08:10:49;;;;;;;1.80;1.20;;;;;;;8.63;57.25;98031.75;5094284;28;20052;-62
2024/04/04 08:13:15;;;;;;;1.42;1.20;;;;;;;8.73;56.45;98036.28;5094424;28;20051;-61
2024/04/04 08:15:42;;;;;;;1.13;1.08;;;;;;;8.78;56.56;98042.38;5113009;28;20047;-61
2024/04/04 08:18:08;;;;;;;1.05;0.95;;;;;;;8.79;56.39;98043.16;5076785;28;20036;-63
2024/04/04 08:20:33;;;;;;;2.38;1.20;;;;;;;8.90;55.93;98046.66;5112818;28;20058;-62
2024/04/04 08:23:00;;;;;;;1.00;0.88;;;;;;;8.90;56.34;98058.03;5094024;28;20043;-62
2024/04/04 08:25:28;;;;;;;1.95;1.30;;;;;;;8.89;55.95;98056.44;5114449;28;20063;-62
2024/04/04 08:27:54;;;;;;;1.02;1.00;;;;;;;8.74;57.10;98061.66;5114396;28;20071;-67
2024/04/04 08:30:19;;;;;;;1.98;1.17;;;;;;;8.85;56.65;98060.63;5094585;28;20211;-65
2024/04/04 08:32:45;;;;;;;1.20;1.10;;;;;;;8.97;56.24;98071.00;5094492;28;20050;-66
2024/04/04 08:35:11;;;;;;;1.85;1.60;;;;;;;8.96;56.21;98072.84;5112450;28;20051;-65
2024/04/04 08:37:37;;;;;;;2.30;1.10;;;;;;;9.09;56.33;98085.59;5114428;28;20043;-66
2024/04/04 08:40:08;;;;;;;1.88;1.10;;;;;;;9.02;56.19;98076.31;5095703;28;20046;-64
2024/04/04 08:42:36;;;;;;;1.20;1.10;;;;;;;9.11;56.79;98085.31;5111782;28;20566;-65
2024/04/04 08:45:03;;;;;;;3.22;1.20;;;;;;;8.94;56.66;98076.78;5110941;28;20035;-65
2024/04/04 08:47:31;;;;;;;1.58;1.20;;;;;;;8.80;57.44;98085.22;5111700;28;20393;-71
2024/04/04 08:49:57;;;;;;;3.92;1.25;;;;;;;8.70;57.60;98094.91;5103451;28;20081;-65
2024/04/04 08:52:23;;;;;;;1.02;1.00;;;;;;;8.74;58.04;98090.72;5111955;28;20075;-65
2024/04/04 08:54:50;;;;;;;1.00;0.90;;;;;;;8.95;57.83;98086.34;5093278;28;20078;-64
2024/04/04 08:57:19;;;;;;;1.15;1.00;;;;;;;9.18;57.41;98096.47;5093653;28;20075;-65
2024/04/04 08:59:58;;;;;;;1.88;1.55;;;;;;;9.12;57.58;98101.97;5111607;28;20124;-64
2024/04/04 09:02:26;;;;;;;1.67;1.38;;;;;;;8.96;59.34;98109.84;5080459;28;20043;-68
2024/04/04 09:05:03;;;;;;;1.33;1.23;;;;;;;8.70;60.70;98108.91;5111375;28;20176;-67
2024/04/04 09:07:29;;;;;;;0.90;0.90;;;;;;;8.68;60.95;98118.97;5076600;28;20071;-66
2024/04/04 09:09:55;;;;;;;1.75;1.48;;;;;;;8.76;61.24;98120.31;5111119;28;20142;-66
2024/04/04 09:12:21;;;;;;;2.58;1.60;;;;;;;8.76;60.66;98120.31;5111112;28;20157;-68
2024/04/04 09:14:57;;;;;;;2.42;1.40;;;;;;;8.76;60.97;98120.31;5111176;28;20038;-66
2024/04/04 09:17:23;;;;;;;4.07;1.52;;;;;;;8.58;60.41;98145.31;5092811;28;20040;-63
2024/04/04 09:19:55;;;;;;;1.58;1.45;;;;;;;7.57;60.75;98146.81;5111067;28;20043;-62
2024/04/04 09:22:23;;;;;;;1.95;1.60;;;;;;;6.88;64.51;98154.41;5087893;28;20092;-63
2024/04/04 09:24:49;;;;;;;1.35;1.13;;;;;;;6.37;65.34;98162.38;5111188;28;20078;-62
2024/04/04 09:27:21;;;;;;;1.02;0.98;;;;;;;6.00;67.15;98169.91;5110489;28;20050;-66
2024/04/04 09:29:49;;;;;;;1.85;1.60;;;;;;;5.93;67.91;98180.59;5085238;28;20062;-62
2024/04/04 09:32:18;;;;;;;1.45;1.20;;;;;;;5.97;67.31;98176.47;5090080;28;20040;-63
2024/04/04 09:34:44;;;;;;;1.95;1.30;;;;;;;6.07;68.02;98184.53;5109537;28;20045;-63
2024/04/04 09:37:13;;;;;;;2.30;1.45;;;;;;;6.11;67.70;98174.31;5111243;28;20048;-64
2024/04/04 09:39:43;;;;;;;1.40;1.30;;;;;;;6.15;67.87;98185.97;5111500;28;20080;-62
2024/04/04 09:42:09;;;;;;;1.40;1.30;;;;;;;6.30;68.10;98185.44;5111211;28;20040;-64
2024/04/04 09:44:38;;;;;;;2.67;1.50;;;;;;;6.35;67.94;98183.69;5062096;28;20055;-62
2024/04/04 09:47:04;;;;;;;2.42;2.00;;;;;;;6.59;66.57;98192.22;5089819;28;20039;-62
2024/04/04 09:49:31;;;;;;;3.38;2.70;;;;;;;6.54;64.01;98191.34;5089999;28;20444;-62
2024/04/04 09:51:59;;;;;;;4.60;3.78;;;;;;;6.47;64.66;98199.41;5089919;28;20085;-61
2024/04/04 09:54:25;;;;;;;3.95;2.90;;;;;;;6.53;64.97;98203.72;5069146;28;20044;-62
2024/04/04 09:56:52;;;;;;;4.80;3.83;;;;;;;6.36;64.62;98201.06;5089811;28;20100;-62
2024/04/04 09:59:28;;;;;;;5.40;4.00;;;;;;;6.41;64.32;98210.06;5088978;28;20042;-61
2024/04/04 10:02:01;;;;;;;8.38;5.05;;;;;;;6.40;64.75;98214.53;5109946;28;20119;-62
2024/04/04 10:04:37;;;;;;;5.00;3.88;;;;;;;6.34;63.47;98218.13;5111086;28;20079;-62
2024/04/04 10:07:04;;;;;;;5.20;3.60;;;;;;;6.45;63.56;98224.38;5104601;28;20130;-62
2024/04/04 10:09:41;;;;;;;4.53;3.50;;;;;;;6.66;63.73;98225.47;5071801;28;20044;-64
2024/04/04 10:12:09;;;;;;;2.92;2.60;;;;;;;7.02;61.46;98229.44;5104530;28;20044;-64
2024/04/04 10:14:35;;;;;;;4.22;2.85;;;;;;;7.31;60.34;98232.72;5089492;28;20074;-66
2024/04/04 10:17:05;;;;;;;4.72;3.08;;;;;;;7.40;59.04;98238.38;5103290;28;20141;-65
2024/04/04 10:19:36;;;;;;;5.80;3.03;;;;;;;7.46;58.92;98245.28;5106000;28;20067;-62
2024/04/04 10:22:02;;;;;;;2.95;2.63;;;;;;;7.37;58.91;98242.28;5070007;28;20455;-64
2024/04/04 10:24:29;;;;;;;4.28;3.05;;;;;;;7.30;58.88;98236.41;5085951;28;20492;-64
2024/04/04 10:26:57;;;;;;;3.35;2.10;;;;;;;7.24;58.44;98254.00;5107330;28;20043;-63
2024/04/04 10:29:34;;;;;;;3.35;2.70;;;;;;;7.19;59.25;98253.13;5092466;28;21398;-62
2024/04/04 10:32:08;;;;;;;2.63;2.30;;;;;;;7.13;60.41;98254.09;5092774;28;20093;-64
2024/04/04 10:34:34;;;;;;;6.40;2.40;;;;;;;7.24;59.40;98259.25;5110889;28;20032;-64
2024/04/04 10:37:00;;;;;;;2.65;2.00;;;;;;;7.26;58.74;98267.72;5109421;28;20046;-63
2024/04/04 10:39:26;;;;;;;2.53;2.08;;;;;;;7.50;59.17;98264.88;5075462;28;20044;-64
2024/04/04 10:41:57;;;;;;;2.45;2.25;;;;;;;7.49;57.39;98266.69;5110920;28;20036;-63
2024/04/04 10:44:23;;;;;;;4.53;2.47;;;;;;;7.24;58.18;98279.56;5108658;28;20063;-63
2024/04/04 10:46:49;;;;;;;3.65;2.75;;;;;;;7.07;59.17;98284.84;5095618;28;20090;-63
2024/04/04 10:49:17;;;;;;;3.38;2.20;;;;;;;6.80;60.56;98290.75;5114173;28;20051;-63
2024/04/04 10:51:54;;;;;;;2.58;2.20;;;;;;;6.68;61.42;98305.06;5091648;28;20042;-63
2024/04/04 10:54:21;;;;;;;2.75;1.70;;;;;;;6.26;61.33;98295.63;5090654;28;20096;-62
2024/04/04 10:56:47;;;;;;;5.22;3.08;;;;;;;6.18;62.43;98308.34;5097592;28;20089;-65
2024/04/04 10:59:17;;;;;;;4.75;2.42;;;;;;;6.00;61.58;98319.84;5095087;28;20092;-65
2024/04/04 11:01:45;;;;;;;3.70;2.55;;;;;;;5.65;62.59;98331.25;5062203;28;20480;-62
2024/04/04 11:04:11;;;;;;;3.05;2.28;;;;;;;5.64;62.79;98322.53;5095473;28;20071;-62
2024/04/04 11:06:41;;;;;;;3.47;2.38;;;;;;;5.64;63.49;98337.53;5114200;28;20051;-63
2024/04/04 11:09:15;;;;;;;3.67;2.80;;;;;;;5.60;62.50;98337.19;5110553;28;20036;-62
2024/04/04 11:11:42;;;;;;;1.80;1.70;;;;;;;5.57;62.14;98347.38;5113874;28;20035;-63
2024/04/04 11:14:08;;;;;;;3.20;1.70;;;;;;;5.43;62.68;98352.06;5113489;28;20051;-63
2024/04/04 11:16:37;;;;;;;1.90;1.70;;;;;;;5.34;62.62;98350.81;5095853;28;20036;-62
2024/04/04 11:19:05;;;;;;;2.70;1.83;;;;;;;5.28;61.17;98355.13;5078015;28;20028;-62
2024/04/04 11:21:31;;;;;;;1.98;1.70;;;;;;;5.47;61.10;98358.44;5094997;28;20097;-62
2024/04/04 11:23:57;;;;;;;3.28;2.05;;;;;;;5.63;60.03;98357.75;5113063;28;20504;-61
2024/04/04 11:26:24;;;;;;;4.57;2.00;;;;;;;5.70;60.25;98361.06;5095244;28;20050;-63
2024/04/04 11:28:51;;;;;;;3.95;1.90;;;;;;;5.80;59.85;98375.47;5112928;28;20556;-62
2024/04/04 11:31:17;;;;;;;4.88;2.20;;;;;;;6.08;58.91;98369.47;5113514;28;20097;-62
2024/04/04 11:33:42;;;;;;;3.35;2.10;;;;;;;6.19;59.02;98386.28;5112897;28;20036;-62
2024/04/04 11:36:08;;;;;;;5.60;3.58;;;;;;;6.23;57.84;98379.50;5113316;28;20043;-62
2024/04/04 11:38:34;;;;;;;7.63;3.90;;;;;;;6.08;57.88;98383.44;5111947;28;20076;-65
2024/04/04 11:41:00;;;;;;;3.05;1.92;;;;;;;5.90;58.08;98391.44;5094394;28;20131;-66
2024/04/04 11:43:26;;;;;;;4.90;2.75;;;;;;;6.02;57.57;98389.63;5112989;28;20131;-64